createdAt,value
2018-12-23T00:01:23.558Z,0.85
2018-12-23T00:03:50.969Z,1.45
2018-12-23T00:06:18.471Z,2.95
2018-12-23T00:08:46.015Z,1.25
2018-12-23T00:11:13.505Z,1.90
2018-12-23T00:13:41.055Z,1.85
2018-12-23T00:16:08.526Z,1.70
2018-12-23T00:18:35.989Z,1.25
2018-12-23T00:21:03.462Z,1.25
2018-12-23T00:23:31.034Z,1.15
2018-12-23T00:25:58.711Z,1.10
2018-12-23T00:28:26.178Z,1.10
2018-12-23T00:30:53.583Z,1.70
2018-12-23T00:33:21.125Z,1.12
2018-12-23T00:35:48.597Z,1.75
2018-12-23T00:38:16.058Z,1.00
2018-12-23T00:40:43.466Z,1.65
2018-12-23T00:43:11.414Z,1.70
2018-12-23T00:45:38.902Z,1.35
2018-12-23T00:48:06.369Z,1.25
2018-12-23T00:50:33.826Z,2.30
2018-12-23T00:53:01.294Z,1.10
2018-12-23T00:55:28.718Z,1.10
2018-12-23T00:57:56.185Z,1.52
2018-12-23T01:00:23.703Z,1.80
2018-12-23T01:02:51.195Z,1.45
2018-12-23T01:05:18.613Z,1.07
2018-12-23T01:07:46.118Z,1.22
2018-12-23T01:10:13.542Z,1.22
2018-12-23T01:12:41.029Z,1.15
2018-12-23T01:15:08.521Z,1.85
2018-12-23T01:17:35.937Z,1.10
2018-12-23T01:20:03.729Z,1.17
2018-12-23T01:22:31.162Z,1.40
2018-12-23T01:24:58.614Z,1.55
2018-12-23T01:27:26.081Z,1.62
2018-12-23T01:29:53.659Z,1.17
2018-12-23T01:32:21.148Z,1.17
2018-12-23T01:34:48.613Z,1.95
2018-12-23T01:37:16.204Z,1.42
2018-12-23T01:39:43.657Z,1.72
2018-12-23T01:42:11.072Z,1.32
2018-12-23T01:44:38.478Z,1.10
2018-12-23T01:47:05.982Z,1.67
2018-12-23T01:49:33.473Z,1.30
2018-12-23T01:52:00.995Z,1.40
2018-12-23T01:54:28.489Z,1.25
2018-12-23T01:56:55.980Z,1.40
2018-12-23T01:59:23.442Z,1.30
2018-12-23T02:01:51.023Z,1.62
2018-12-23T02:04:18.506Z,1.70
2018-12-23T02:06:45.914Z,1.10
2018-12-23T02:09:13.440Z,1.05
2018-12-23T02:11:40.937Z,1.32
2018-12-23T02:14:08.342Z,1.45
2018-12-23T02:16:35.733Z,1.37
2018-12-23T02:19:03.270Z,1.75
2018-12-23T02:21:30.761Z,1.25
2018-12-23T02:23:58.182Z,1.67
2018-12-23T02:26:25.681Z,1.77
2018-12-23T02:28:53.150Z,1.70
2018-12-23T02:31:20.562Z,1.32
2018-12-23T02:33:48.036Z,2.08
2018-12-23T02:36:15.527Z,1.50
2018-12-23T02:38:43.026Z,2.02
2018-12-23T02:41:10.454Z,1.00
2018-12-23T02:43:37.975Z,1.42
2018-12-23T02:46:05.469Z,1.82
2018-12-23T02:48:32.890Z,1.90
2018-12-23T02:51:00.302Z,2.62
2018-12-23T02:53:27.758Z,1.40
2018-12-23T02:55:55.246Z,1.72
2018-12-23T02:58:22.786Z,1.20
2018-12-23T03:00:50.366Z,1.20
2018-12-23T03:03:17.757Z,1.15
2018-12-23T03:05:45.182Z,2.17
2018-12-23T03:08:12.654Z,1.60
2018-12-23T03:10:40.249Z,2.02
2018-12-23T03:13:07.823Z,1.35
2018-12-23T03:15:35.291Z,1.00
2018-12-23T03:18:02.758Z,1.10
2018-12-23T03:20:30.246Z,1.30
2018-12-23T03:22:57.698Z,1.75
2018-12-23T03:25:25.188Z,1.87
2018-12-23T03:27:52.667Z,1.20
2018-12-23T03:30:20.215Z,1.30
2018-12-23T03:32:47.793Z,1.42
2018-12-23T03:35:15.293Z,1.45
2018-12-23T03:37:42.701Z,1.42
2018-12-23T03:40:10.198Z,1.65
2018-12-23T03:42:37.622Z,1.82
2018-12-23T03:45:05.213Z,2.05
2018-12-23T03:47:32.630Z,1.45
2018-12-23T03:50:00.337Z,1.85
2018-12-23T03:52:27.861Z,1.90
2018-12-23T03:54:55.343Z,1.40
2018-12-23T03:57:22.899Z,1.82
2018-12-23T03:59:50.474Z,1.25
2018-12-23T04:02:17.947Z,2.25
2018-12-23T04:04:45.478Z,1.92
2018-12-23T04:07:12.987Z,2.17
2018-12-23T04:09:40.453Z,1.40
2018-12-23T04:12:07.943Z,1.37
2018-12-23T04:14:35.502Z,1.40
2018-12-23T04:17:02.997Z,1.30
2018-12-23T04:19:30.578Z,2.12
2018-12-23T04:21:57.993Z,1.27
2018-12-23T04:24:25.548Z,1.32
2018-12-23T04:26:52.962Z,1.32
2018-12-23T04:29:20.429Z,1.55
2018-12-23T04:31:47.841Z,2.00
2018-12-23T04:34:15.253Z,2.37
2018-12-23T04:36:42.647Z,1.60
2018-12-23T04:39:10.122Z,2.12
2018-12-23T04:41:37.622Z,1.60
2018-12-23T04:44:05.189Z,1.30
2018-12-23T04:46:32.641Z,1.67
2018-12-23T04:49:00.058Z,1.15
2018-12-23T04:51:27.458Z,1.05
2018-12-23T04:53:55.126Z,1.57
2018-12-23T04:56:22.518Z,1.62
2018-12-23T04:58:49.966Z,1.50
2018-12-23T05:01:17.449Z,1.82
2018-12-23T05:03:44.874Z,2.02
2018-12-23T05:06:12.357Z,1.20
2018-12-23T05:08:39.847Z,1.92
2018-12-23T05:11:07.326Z,1.50
2018-12-23T05:13:34.794Z,1.20
2018-12-23T05:16:02.274Z,1.82
2018-12-23T05:18:29.727Z,1.15
2018-12-23T05:20:57.196Z,1.80
2018-12-23T05:23:24.659Z,1.70
2018-12-23T05:25:52.153Z,1.30
2018-12-23T05:28:20.882Z,1.65
2018-12-23T05:30:48.418Z,1.40
2018-12-23T05:33:15.809Z,1.25
2018-12-23T05:35:43.258Z,2.25
2018-12-23T05:38:10.734Z,1.80
2018-12-23T05:40:38.209Z,1.20
2018-12-23T05:43:05.702Z,1.85
2018-12-23T05:45:33.187Z,1.75
2018-12-23T05:48:00.679Z,1.70
2018-12-23T05:50:28.081Z,1.30
2018-12-23T05:52:55.543Z,1.42
2018-12-23T05:55:24.697Z,2.12
2018-12-23T05:57:52.730Z,1.35
2018-12-23T06:00:20.234Z,1.20
2018-12-23T06:02:47.729Z,1.70
2018-12-23T06:05:15.130Z,1.70
2018-12-23T06:07:42.616Z,1.40
2018-12-23T06:10:10.147Z,2.08
2018-12-23T06:12:37.625Z,1.10
2018-12-23T06:15:05.131Z,1.87
2018-12-23T06:17:32.534Z,1.52
2018-12-23T06:19:59.949Z,1.30
2018-12-23T06:22:27.435Z,1.62
2018-12-23T06:24:54.918Z,0.95
2018-12-23T06:27:22.333Z,1.67
2018-12-23T06:29:49.802Z,1.10
2018-12-23T06:32:17.202Z,1.02
2018-12-23T06:34:44.627Z,2.27
2018-12-23T06:37:12.114Z,1.47
2018-12-23T06:39:39.582Z,1.75
2018-12-23T06:42:06.999Z,1.55
2018-12-23T06:44:34.393Z,1.15
2018-12-23T06:47:01.797Z,1.55
2018-12-23T06:49:29.266Z,1.98
2018-12-23T06:51:56.754Z,1.62
2018-12-23T06:54:24.149Z,2.00
2018-12-23T06:56:51.639Z,1.37
2018-12-23T06:59:19.034Z,1.40
2018-12-23T07:01:46.546Z,1.45
2018-12-23T07:04:13.950Z,1.30
2018-12-23T07:06:41.437Z,1.90
2018-12-23T07:09:08.874Z,1.52
2018-12-23T07:11:36.329Z,1.57
2018-12-23T07:14:03.821Z,1.25
2018-12-23T07:16:31.270Z,1.30
2018-12-23T07:18:58.689Z,1.30
2018-12-23T07:21:26.170Z,1.27
2018-12-23T07:23:53.792Z,1.35
2018-12-23T07:26:21.259Z,1.27
2018-12-23T07:28:48.729Z,1.25
2018-12-23T07:31:16.216Z,1.82
2018-12-23T07:33:43.706Z,1.20
2018-12-23T07:36:11.181Z,1.70
2018-12-23T07:38:38.616Z,1.80
2018-12-23T07:41:06.179Z,1.60
2018-12-23T07:43:33.758Z,1.90
2018-12-23T07:46:01.223Z,1.65
2018-12-23T07:48:28.798Z,1.75
2018-12-23T07:50:56.367Z,2.40
2018-12-23T07:53:23.854Z,1.55
2018-12-23T07:55:51.353Z,1.30
2018-12-23T07:58:18.978Z,1.92
2018-12-23T08:00:46.462Z,1.42
2018-12-23T08:03:13.936Z,1.60
2018-12-23T08:05:41.417Z,1.77
2018-12-23T08:08:08.810Z,1.72
2018-12-23T08:10:36.229Z,2.60
2018-12-23T08:13:03.649Z,2.33
2018-12-23T08:15:31.141Z,3.17
2018-12-23T08:17:58.618Z,1.55
2018-12-23T08:20:26.098Z,1.90
2018-12-23T08:22:53.581Z,1.35
2018-12-23T08:25:21.057Z,1.62
2018-12-23T08:27:48.631Z,2.80
2018-12-23T08:30:16.099Z,2.67
2018-12-23T08:32:43.515Z,2.35
2018-12-23T08:35:10.999Z,1.87
2018-12-23T08:37:44.558Z,1.60
2018-12-23T08:40:07.929Z,1.85
2018-12-23T08:42:35.389Z,2.00
2018-12-23T08:45:02.897Z,1.80
2018-12-23T08:47:30.390Z,2.58
2018-12-23T08:49:57.880Z,1.98
2018-12-23T08:52:25.345Z,2.10
2018-12-23T08:54:52.850Z,3.83
2018-12-23T08:57:20.319Z,1.90
2018-12-23T08:59:47.814Z,3.27
2018-12-23T09:02:15.262Z,2.40
2018-12-23T09:04:42.670Z,1.70
2018-12-23T09:07:10.173Z,2.40
2018-12-23T09:09:37.676Z,2.20
2018-12-23T09:12:05.105Z,2.95
2018-12-23T09:14:32.594Z,2.45
2018-12-23T09:17:00.086Z,2.27
2018-12-23T09:19:27.494Z,2.30
2018-12-23T09:21:54.987Z,2.25
2018-12-23T09:24:22.445Z,2.30
2018-12-23T09:26:49.947Z,2.12
2018-12-23T09:29:17.444Z,2.92
2018-12-23T09:31:44.944Z,4.65
2018-12-23T09:34:12.491Z,2.22
2018-12-23T09:36:39.994Z,2.92
2018-12-23T09:39:07.488Z,3.55
2018-12-23T09:41:34.969Z,2.15
2018-12-23T09:44:02.385Z,2.25
2018-12-23T09:46:29.882Z,1.70
2018-12-23T09:48:57.414Z,3.42
2018-12-23T09:51:24.985Z,3.00
2018-12-23T09:53:52.382Z,4.20
2018-12-23T09:56:19.870Z,2.50
2018-12-23T09:58:47.299Z,2.40
2018-12-23T10:01:14.866Z,3.00
2018-12-23T10:03:42.339Z,2.72
2018-12-23T10:06:09.916Z,2.30
2018-12-23T10:08:37.385Z,3.02
2018-12-23T10:11:04.818Z,2.72
2018-12-23T10:13:32.425Z,1.65
2018-12-23T10:15:59.915Z,2.05
2018-12-23T10:18:27.405Z,3.33
2018-12-23T10:20:54.938Z,3.15
2018-12-23T10:23:22.346Z,2.52
2018-12-23T10:25:49.975Z,2.37
2018-12-23T10:28:17.555Z,3.40
2018-12-23T10:30:45.041Z,2.17
2018-12-23T10:33:12.534Z,3.40
2018-12-23T10:35:40.025Z,2.67
2018-12-23T10:38:07.498Z,2.65
2018-12-23T10:40:34.901Z,3.12
2018-12-23T10:43:02.385Z,2.30
2018-12-23T10:45:29.947Z,2.70
2018-12-23T10:47:57.438Z,3.05
2018-12-23T10:50:24.849Z,3.08
2018-12-23T10:52:52.270Z,3.15
2018-12-23T10:55:19.701Z,2.47
2018-12-23T10:57:47.126Z,3.42
2018-12-23T11:00:14.614Z,3.08
2018-12-23T11:02:42.109Z,3.08
2018-12-23T11:05:09.539Z,2.92
2018-12-23T11:07:37.079Z,3.08
2018-12-23T11:10:05.674Z,3.52
2018-12-23T11:12:33.084Z,2.20
2018-12-23T11:15:00.569Z,3.08
2018-12-23T11:17:28.062Z,3.65
2018-12-23T11:19:55.542Z,3.62
2018-12-23T11:22:22.958Z,3.22
2018-12-23T11:24:50.442Z,2.52
2018-12-23T11:27:17.966Z,2.67
2018-12-23T11:29:45.394Z,3.27
2018-12-23T11:32:12.874Z,3.45
2018-12-23T11:34:40.382Z,2.27
2018-12-23T11:37:07.801Z,3.30
2018-12-23T11:39:35.330Z,3.98
2018-12-23T11:42:02.817Z,2.40
2018-12-23T11:44:30.365Z,3.12
2018-12-23T11:46:57.845Z,2.12
2018-12-23T11:49:25.287Z,3.10
2018-12-23T11:51:52.774Z,2.52
2018-12-23T11:54:20.215Z,2.30
2018-12-23T11:56:47.705Z,2.50
2018-12-23T11:59:15.137Z,2.98
2018-12-23T12:01:42.622Z,2.77
2018-12-23T12:04:10.097Z,2.75
2018-12-23T12:06:37.598Z,2.50
2018-12-23T12:09:07.053Z,2.50
2018-12-23T12:11:35.214Z,3.27
2018-12-23T12:14:02.773Z,2.77
2018-12-23T12:16:30.185Z,2.72
2018-12-23T12:18:57.719Z,2.85
2018-12-23T12:21:25.190Z,3.25
2018-12-23T12:23:52.627Z,3.33
2018-12-23T12:26:20.114Z,3.27
2018-12-23T12:28:47.522Z,2.98
2018-12-23T12:31:15.069Z,3.58
2018-12-23T12:33:42.641Z,2.75
2018-12-23T12:36:10.133Z,2.90
2018-12-23T12:38:37.551Z,2.55
2018-12-23T12:41:05.038Z,2.27
2018-12-23T12:43:32.453Z,2.67
2018-12-23T12:46:00.701Z,2.58
2018-12-23T12:48:28.477Z,3.05
2018-12-23T12:50:55.953Z,3.45
2018-12-23T12:53:23.438Z,3.10
2018-12-23T12:55:50.851Z,3.00
2018-12-23T12:58:18.367Z,3.27
2018-12-23T13:00:45.770Z,2.30
2018-12-23T13:03:13.202Z,2.40
2018-12-23T13:05:40.609Z,3.05
2018-12-23T13:08:08.089Z,1.77
2018-12-23T13:10:35.514Z,2.10
2018-12-23T13:13:02.985Z,2.50
2018-12-23T13:15:30.473Z,2.90
2018-12-23T13:17:57.954Z,3.17
2018-12-23T13:20:25.361Z,2.62
2018-12-23T13:22:52.778Z,2.15
2018-12-23T13:25:20.201Z,3.25
2018-12-23T13:27:47.702Z,2.30
2018-12-23T13:30:15.277Z,3.15
2018-12-23T13:32:42.746Z,2.70
2018-12-23T13:35:10.257Z,3.08
2018-12-23T13:37:37.686Z,2.50
2018-12-23T13:40:11.714Z,1.92
2018-12-23T13:42:53.009Z,2.10
2018-12-23T13:45:34.075Z,2.37
2018-12-23T13:48:11.161Z,2.02
2018-12-23T13:50:47.169Z,3.10
2018-12-23T13:53:31.953Z,1.62
2018-12-23T13:59:51.815Z,1.50
2018-12-23T14:02:32.960Z,2.10
2018-12-23T14:05:13.867Z,2.77
2018-12-23T14:07:54.993Z,1.85
2018-12-23T14:10:35.576Z,2.00
2018-12-23T14:13:16.612Z,1.55
2018-12-23T14:15:57.820Z,2.05
2018-12-23T14:18:39.099Z,1.92
2018-12-23T14:21:20.357Z,1.80
2018-12-23T14:24:00.899Z,1.50
2018-12-23T14:26:41.432Z,1.10
2018-12-23T14:29:22.688Z,1.40
2018-12-23T14:32:03.052Z,1.77
2018-12-23T14:34:43.397Z,1.30
2018-12-23T14:37:24.355Z,1.45
2018-12-23T14:40:05.244Z,2.00
2018-12-23T14:42:45.903Z,0.98
2018-12-23T14:45:26.735Z,1.32
2018-12-23T14:48:07.632Z,0.90
2018-12-23T14:50:48.143Z,1.20
2018-12-23T14:53:29.532Z,1.12
2018-12-23T14:56:08.515Z,0.90
2018-12-23T14:58:56.683Z,1.57
2018-12-23T15:01:44.499Z,0.98
2018-12-23T15:04:32.327Z,1.20
2018-12-23T15:07:20.143Z,1.00
2018-12-23T15:10:28.967Z,1.17
2018-12-23T15:13:18.013Z,0.93
2018-12-23T15:16:06.612Z,0.90
2018-12-23T15:18:54.440Z,1.45
2018-12-23T15:21:35.735Z,1.27
2018-12-23T15:24:16.604Z,1.55
2018-12-23T15:26:55.411Z,1.85
2018-12-23T15:29:43.538Z,2.40
2018-12-23T15:32:31.355Z,1.82
2018-12-23T15:35:19.191Z,1.70
2018-12-23T15:38:07.299Z,1.67
2018-12-23T15:40:55.124Z,1.30
2018-12-23T15:43:42.951Z,1.37
2018-12-23T15:46:31.048Z,1.10
2018-12-23T15:49:18.871Z,2.55
2018-12-23T15:52:06.951Z,1.77
2018-12-23T15:54:54.779Z,2.55
2018-12-23T15:57:42.860Z,1.37
2018-12-23T16:00:31.011Z,2.30
2018-12-23T16:03:19.069Z,5.10
2018-12-23T16:06:06.900Z,9.60
2018-12-23T16:12:01.595Z,2.55
2018-12-23T16:14:49.420Z,2.25
2018-12-23T16:17:37.571Z,2.25
2018-12-23T16:20:18.360Z,3.40
2018-12-23T16:22:59.477Z,2.25
2018-12-23T16:25:40.079Z,3.17
2018-12-23T16:28:18.861Z,2.65
2018-12-23T16:31:07.223Z,2.37
2018-12-23T16:33:55.280Z,3.45
2018-12-23T16:36:43.440Z,3.17
2018-12-23T16:39:31.491Z,2.10
2018-12-23T16:42:19.319Z,2.17
2018-12-23T16:45:07.151Z,2.65
2018-12-23T16:47:54.967Z,3.12
2018-12-23T16:50:43.028Z,2.67
2018-12-23T16:53:31.148Z,4.10
2018-12-23T16:56:19.307Z,2.70
2018-12-23T16:59:07.364Z,3.92
2018-12-23T17:01:55.527Z,3.17
2018-12-23T17:04:43.343Z,3.87
2018-12-23T17:07:31.423Z,4.15
2018-12-23T17:10:19.243Z,4.03
2018-12-23T17:13:07.064Z,4.40
2018-12-23T17:15:54.879Z,4.00
2018-12-23T17:18:43.031Z,3.92
2018-12-23T17:21:23.829Z,3.52
2018-12-23T17:24:04.363Z,4.45
2018-12-23T17:26:45.514Z,3.50
2018-12-23T17:29:25.822Z,2.87
2018-12-23T17:32:06.785Z,3.62
2018-12-23T17:34:47.984Z,3.35
2018-12-23T17:37:28.816Z,4.87
2018-12-23T17:40:16.308Z,3.50
2018-12-23T17:42:51.512Z,4.42
2018-12-23T17:45:31.791Z,4.28
2018-12-23T17:48:13.171Z,4.83
2018-12-23T17:50:54.207Z,4.00
2018-12-23T17:53:35.102Z,4.28
2018-12-23T17:56:16.075Z,5.03
2018-12-23T17:58:57.289Z,4.22
2018-12-23T18:01:38.507Z,4.80
2018-12-23T18:04:19.160Z,3.80
2018-12-23T18:07:03.846Z,4.80
2018-12-23T18:09:43.559Z,3.80
2018-12-23T18:12:24.579Z,4.08
2018-12-23T18:15:05.769Z,4.05
2018-12-23T18:17:47.025Z,3.42
2018-12-23T18:20:25.896Z,3.80
2018-12-23T18:23:13.724Z,6.00
2018-12-23T18:26:01.539Z,5.80
2018-12-23T18:28:49.367Z,5.37
2018-12-23T18:31:48.965Z,5.03
2018-12-23T18:34:26.728Z,4.42
2018-12-23T18:37:14.544Z,5.45
2018-12-23T18:40:02.660Z,4.53
2018-12-23T18:42:50.711Z,5.05
2018-12-23T18:45:38.872Z,5.67
2018-12-23T18:48:26.924Z,5.30
2018-12-23T18:51:15.084Z,5.33
2018-12-23T18:54:02.898Z,5.25
2018-12-23T18:56:51.095Z,5.67
2018-12-23T18:59:38.911Z,4.72
2018-12-23T19:02:47.696Z,5.37
2018-12-23T19:05:35.530Z,5.87
2018-12-23T19:08:23.515Z,5.50
2018-12-23T19:11:30.904Z,5.30
2018-12-23T19:14:38.047Z,5.75
2018-12-23T19:17:45.207Z,4.90
2018-12-23T19:20:25.671Z,4.35
2018-12-23T19:23:06.104Z,4.80
2018-12-23T19:25:46.679Z,4.25
2018-12-23T19:28:27.760Z,6.00
2018-12-23T19:31:08.695Z,4.30
2018-12-23T19:33:48.939Z,4.20
2018-12-23T19:36:29.352Z,4.28
2018-12-23T19:39:09.724Z,6.53
2018-12-23T19:41:51.183Z,4.80
2018-12-23T19:44:31.644Z,4.45
2018-12-23T19:47:12.608Z,5.53
2018-12-23T19:49:53.788Z,4.55
2018-12-23T19:52:34.836Z,5.67
2018-12-23T19:55:15.995Z,4.60
2018-12-23T19:57:56.324Z,5.65
2018-12-23T20:00:37.419Z,3.72
2018-12-23T20:03:18.687Z,3.72
2018-12-23T20:05:59.915Z,4.22
2018-12-23T20:08:41.394Z,3.30
2018-12-23T20:11:22.247Z,3.20
2018-12-23T20:14:03.588Z,3.27
2018-12-23T20:16:44.601Z,2.35
2018-12-23T20:19:25.620Z,2.95
2018-12-23T20:22:06.933Z,2.08
2018-12-23T20:24:47.812Z,2.10
2018-12-23T20:27:28.612Z,2.35
2018-12-23T20:30:09.227Z,2.65
2018-12-23T20:32:50.220Z,2.20
2018-12-23T20:35:30.971Z,2.55
2018-12-23T20:38:11.615Z,1.95
2018-12-23T20:40:53.071Z,1.45
2018-12-23T20:43:34.248Z,2.05
2018-12-23T20:46:15.416Z,1.45
2018-12-23T20:48:56.614Z,1.75
2018-12-23T20:51:38.055Z,1.30
2018-12-23T20:54:18.740Z,1.20
2018-12-23T20:56:59.155Z,1.30
2018-12-23T20:59:40.087Z,1.57
2018-12-23T21:02:21.689Z,1.30
2018-12-23T21:05:02.832Z,0.80
2018-12-23T21:07:44.095Z,1.50
2018-12-23T21:10:24.543Z,1.02
2018-12-23T21:13:05.556Z,0.95
2018-12-23T21:15:46.987Z,0.78
2018-12-23T21:18:27.644Z,0.75
2018-12-23T21:21:09.159Z,0.93
2018-12-23T21:23:49.653Z,1.00
2018-12-23T21:26:30.711Z,0.70
2018-12-23T21:29:11.947Z,1.10
2018-12-23T21:31:52.904Z,0.90
2018-12-23T21:34:33.705Z,1.10
2018-12-23T21:37:14.795Z,0.70
2018-12-23T21:39:55.404Z,0.80
2018-12-23T21:42:36.771Z,0.70
2018-12-23T21:45:17.532Z,0.88
2018-12-23T21:47:58.591Z,0.70
2018-12-23T21:50:39.864Z,0.90
2018-12-23T21:53:20.754Z,0.93
2018-12-23T21:56:01.148Z,0.80
2018-12-23T21:58:41.707Z,0.80
2018-12-23T22:01:23.003Z,0.70
2018-12-23T22:04:04.179Z,0.70
2018-12-23T22:06:45.332Z,0.80
2018-12-23T22:09:26.191Z,0.80
2018-12-23T22:12:07.463Z,0.93
2018-12-23T22:14:48.240Z,0.80
2018-12-23T22:17:29.436Z,0.78
2018-12-23T22:20:10.492Z,0.80
2018-12-23T22:22:51.491Z,0.78
2018-12-23T22:25:32.723Z,0.70
2018-12-23T22:28:13.855Z,0.75
2018-12-23T22:30:54.940Z,0.70
2018-12-23T22:33:35.892Z,0.70
2018-12-23T22:36:17.104Z,0.80
2018-12-23T22:38:57.952Z,0.80
2018-12-23T22:41:41.482Z,0.85
2018-12-23T22:44:22.133Z,0.80
2018-12-23T22:47:03.131Z,0.70
2018-12-23T22:49:44.223Z,0.82
2018-12-23T22:52:24.940Z,0.80
2018-12-23T22:55:05.663Z,0.80
2018-12-23T22:57:45.947Z,0.70
2018-12-23T23:00:28.455Z,0.70
2018-12-23T23:03:09.417Z,0.80
2018-12-23T23:05:50.200Z,0.90
2018-12-23T23:08:30.987Z,0.70
2018-12-23T23:13:56.472Z,0.82
2018-12-23T23:16:37.059Z,0.70
2018-12-23T23:19:17.720Z,0.70
2018-12-23T23:21:58.413Z,0.70
2018-12-23T23:24:38.775Z,0.78
2018-12-23T23:27:19.091Z,0.80
2018-12-23T23:30:00.252Z,0.68
2018-12-23T23:32:41.015Z,0.80
2018-12-23T23:35:22.339Z,0.80
2018-12-23T23:38:02.903Z,0.70
2018-12-23T23:40:44.276Z,1.15
2018-12-23T23:43:25.194Z,0.70
2018-12-23T23:46:05.740Z,0.80
2018-12-23T23:48:46.828Z,1.12
2018-12-23T23:51:27.373Z,1.17
2018-12-23T23:54:07.646Z,1.55
2018-12-23T23:56:48.703Z,0.90
2018-12-23T23:59:29.964Z,1.15
